sensor_id;sensor_type;location;lat;lon;timestamp;pressure;altitude;pressure_sealevel;temperature;humidity
70815;BME280;58428;49.478;10.986;2023-01-19T00:00:04;97320.16;;;-0.68;100.00
70815;BME280;58428;49.478;10.986;2023-01-19T00:02:30;97327.94;;;-0.76;100.00
70815;BME280;58428;49.478;10.986;2023-01-19T00:04:56;97323.69;;;-0.77;100.00
70815;BME280;58428;49.478;10.986;2023-01-19T00:07:25;97325.81;;;-0.74;100.00
70815;BME280;58428;49.478;10.986;2023-01-19T00:09:50;97326.03;;;-0.71;100.00
70815;BME280;58428;49.478;10.986;2023-01-19T00:12:17;97320.22;;;-0.73;100.00
70815;BME280;58428;49.478;10.986;2023-01-19T00:14:43;97326.34;;;-0.77;100.00
70815;BME280;58428;49.478;10.986;2023-01-19T00:17:08;97323.69;;;-0.77;100.00
70815;BME280;58428;49.478;10.986;2023-01-19T00:19:34;97324.50;;;-0.77;100.00
70815;BME280;58428;49.478;10.986;2023-01-19T00:21:59;97335.69;;;-0.80;100.00
70815;BME280;58428;49.478;10.986;2023-01-19T00:24:25;97342.06;;;-0.81;100.00
70815;BME280;58428;49.478;10.986;2023-01-19T00:26:52;97332.28;;;-0.85;100.00
70815;BME280;58428;49.478;10.986;2023-01-19T00:29:17;97332.84;;;-0.88;100.00
70815;BME280;58428;49.478;10.986;2023-01-19T00:31:44;97331.06;;;-0.98;100.00
70815;BME280;58428;49.478;10.986;2023-01-19T00:34:12;97330.81;;;-1.01;100.00
70815;BME280;58428;49.478;10.986;2023-01-19T00:36:37;97330.03;;;-1.02;100.00
70815;BME280;58428;49.478;10.986;2023-01-19T00:39:04;97328.19;;;-1.01;100.00
70815;BME280;58428;49.478;10.986;2023-01-19T00:41:35;97331.94;;;-1.07;100.00
70815;BME280;58428;49.478;10.986;2023-01-19T00:44:19;97329.88;;;-1.10;100.00
70815;BME280;58428;49.478;10.986;2023-01-19T00:46:45;97331.44;;;-1.09;100.00
70815;BME280;58428;49.478;10.986;2023-01-19T00:49:11;97330.66;;;-1.10;100.00
70815;BME280;58428;49.478;10.986;2023-01-19T00:51:39;97343.94;;;-1.14;100.00
70815;BME280;58428;49.478;10.986;2023-01-19T00:54:05;97334.97;;;-1.18;100.00
70815;BME280;58428;49.478;10.986;2023-01-19T00:56:36;97341.94;;;-1.27;100.00
70815;BME280;58428;49.478;10.986;2023-01-19T00:59:04;97345.91;;;-1.30;100.00
70815;BME280;58428;49.478;10.986;2023-01-19T01:01:29;97348.03;;;-1.27;100.00
70815;BME280;58428;49.478;10.986;2023-01-19T01:03:56;97349.63;;;-1.26;100.00
70815;BME280;58428;49.478;10.986;2023-01-19T01:06:23;97349.66;;;-1.31;100.00
70815;BME280;58428;49.478;10.986;2023-01-19T01:08:48;97350.44;;;-1.30;100.00
70815;BME280;58428;49.478;10.986;2023-01-19T01:11:17;97358.72;;;-1.37;100.00
70815;BME280;58428;49.478;10.986;2023-01-19T01:13:46;97363.69;;;-1.30;100.00
70815;BME280;58428;49.478;10.986;2023-01-19T01:16:18;97356.53;;;-1.30;100.00
70815;BME280;58428;49.478;10.986;2023-01-19T01:18:45;97362.09;;;-1.26;100.00
70815;BME280;58428;49.478;10.986;2023-01-19T01:21:11;97368.47;;;-1.27;100.00
70815;BME280;58428;49.478;10.986;2023-01-19T01:23:39;97363.69;;;-1.25;100.00
70815;BME280;58428;49.478;10.986;2023-01-19T01:26:07;97366.84;;;-1.23;100.00
70815;BME280;58428;49.478;10.986;2023-01-19T01:28:32;97373.22;;;-1.24;100.00
70815;BME280;58428;49.478;10.986;2023-01-19T01:30:59;97377.19;;;-1.22;100.00
70815;BME280;58428;49.478;10.986;2023-01-19T01:33:25;97385.44;;;-1.28;100.00
70815;BME280;58428;49.478;10.986;2023-01-19T01:35:53;97392.88;;;-1.30;100.00
70815;BME280;58428;49.478;10.986;2023-01-19T01:38:19;97388.09;;;-1.28;100.00
70815;BME280;58428;49.478;10.986;2023-01-19T01:40:44;97397.41;;;-1.31;100.00
70815;BME280;58428;49.478;10.986;2023-01-19T01:43:15;97388.38;;;-1.30;100.00
70815;BME280;58428;49.478;10.986;2023-01-19T01:45:41;97391.00;;;-1.30;100.00
70815;BME280;58428;49.478;10.986;2023-01-19T01:50:46;97392.34;;;-1.27;100.00
70815;BME280;58428;49.478;10.986;2023-01-19T01:53:32;97394.19;;;-1.28;100.00
70815;BME280;58428;49.478;10.986;2023-01-19T01:56:02;97394.72;;;-1.26;100.00
70815;BME280;58428;49.478;10.986;2023-01-19T01:58:31;97400.81;;;-1.25;100.00
70815;BME280;58428;49.478;10.986;2023-01-19T02:00:57;97405.03;;;-1.24;100.00
70815;BME280;58428;49.478;10.986;2023-01-19T02:03:41;97398.44;;;-1.27;100.00
70815;BME280;58428;49.478;10.986;2023-01-19T02:06:07;97405.34;;;-1.26;100.00
70815;BME280;58428;49.478;10.986;2023-01-19T02:08:41;97404.06;;;-1.33;100.00
70815;BME280;58428;49.478;10.986;2023-01-19T02:11:27;97394.00;;;-1.36;100.00
70815;BME280;58428;49.478;10.986;2023-01-19T02:14:12;97393.19;;;-1.37;100.00
70815;BME280;58428;49.478;10.986;2023-01-19T02:16:37;97395.91;;;-1.47;100.00
70815;BME280;58428;49.478;10.986;2023-01-19T02:19:12;97392.22;;;-1.50;100.00
70815;BME280;58428;49.478;10.986;2023-01-19T02:22:01;97395.97;;;-1.56;100.00
70815;BME280;58428;49.478;10.986;2023-01-19T02:24:27;97396.25;;;-1.63;100.00
70815;BME280;58428;49.478;10.986;2023-01-19T02:26:54;97401.09;;;-1.70;100.00
70815;BME280;58428;49.478;10.986;2023-01-19T02:29:22;97402.13;;;-1.66;100.00
70815;BME280;58428;49.478;10.986;2023-01-19T02:31:49;97395.47;;;-1.63;100.00
70815;BME280;58428;49.478;10.986;2023-01-19T02:34:17;97398.66;;;-1.61;100.00
70815;BME280;58428;49.478;10.986;2023-01-19T02:37:06;97397.34;;;-1.64;100.00
70815;BME280;58428;49.478;10.986;2023-01-19T02:42:16;97389.13;;;-1.67;100.00
70815;BME280;58428;49.478;10.986;2023-01-19T02:44:46;97391.56;;;-1.76;100.00
70815;BME280;58428;49.478;10.986;2023-01-19T02:47:14;97395.00;;;-1.75;100.00
70815;BME280;58428;49.478;10.986;2023-01-19T02:49:40;97398.44;;;-1.70;100.00
70815;BME280;58428;49.478;10.986;2023-01-19T02:52:25;97400.00;;;-1.69;100.00
70815;BME280;58428;49.478;10.986;2023-01-19T03:00:30;97393.13;;;-1.70;100.00
70815;BME280;58428;49.478;10.986;2023-01-19T03:06:16;97410.91;;;-1.70;100.00
70815;BME280;58428;49.478;10.986;2023-01-19T03:09:05;97421.78;;;-1.77;100.00
70815;BME280;58428;49.478;10.986;2023-01-19T03:11:38;97426.03;;;-1.76;100.00
70815;BME280;58428;49.478;10.986;2023-01-19T03:14:13;97421.78;;;-1.77;100.00
70815;BME280;58428;49.478;10.986;2023-01-19T03:16:47;97428.13;;;-1.73;100.00
70815;BME280;58428;49.478;10.986;2023-01-19T03:19:22;97424.44;;;-1.72;100.00
70815;BME280;58428;49.478;10.986;2023-01-19T03:21:57;97423.34;;;-1.71;100.00
70815;BME280;58428;49.478;10.986;2023-01-19T03:24:49;97433.41;;;-1.68;100.00
70815;BME280;58428;49.478;10.986;2023-01-19T03:27:21;97430.78;;;-1.68;100.00
70815;BME280;58428;49.478;10.986;2023-01-19T03:29:59;97434.22;;;-1.67;100.00
70815;BME280;58428;49.478;10.986;2023-01-19T03:32:36;97435.28;;;-1.68;100.00
70815;BME280;58428;49.478;10.986;2023-01-19T03:35:07;97435.03;;;-1.72;100.00
70815;BME280;58428;49.478;10.986;2023-01-19T03:37:36;97438.78;;;-1.78;100.00
70815;BME280;58428;49.478;10.986;2023-01-19T03:40:06;97434.53;;;-1.79;100.00
70815;BME280;58428;49.478;10.986;2023-01-19T03:42:35;97440.59;;;-1.78;100.00
70815;BME280;58428;49.478;10.986;2023-01-19T03:45:02;97449.09;;;-1.76;100.00
70815;BME280;58428;49.478;10.986;2023-01-19T03:47:28;97452.81;;;-1.77;100.00
70815;BME280;58428;49.478;10.986;2023-01-19T03:49:55;97455.19;;;-1.81;100.00
70815;BME280;58428;49.478;10.986;2023-01-19T03:52:28;97449.63;;;-1.84;100.00
70815;BME280;58428;49.478;10.986;2023-01-19T03:55:02;97447.25;;;-1.81;100.00
70815;BME280;58428;49.478;10.986;2023-01-19T03:57:31;97449.38;;;-1.83;100.00
70815;BME280;58428;49.478;10.986;2023-01-19T03:59:56;97461.84;;;-1.83;100.00
70815;BME280;58428;49.478;10.986;2023-01-19T04:02:23;97457.59;;;-1.84;100.00
70815;BME280;58428;49.478;10.986;2023-01-19T04:04:48;97458.41;;;-1.88;100.00
70815;BME280;58428;49.478;10.986;2023-01-19T04:07:15;97460.06;;;-2.02;100.00
70815;BME280;58428;49.478;10.986;2023-01-19T04:09:41;97454.50;;;-2.01;100.00
70815;BME280;58428;49.478;10.986;2023-01-19T04:12:06;97466.66;;;-1.95;100.00
70815;BME280;58428;49.478;10.986;2023-01-19T04:14:32;97467.97;;;-1.92;100.00
70815;BME280;58428;49.478;10.986;2023-01-19T04:16:57;97465.34;;;-1.97;100.00
70815;BME280;58428;49.478;10.986;2023-01-19T04:19:23;97469.56;;;-1.96;100.00
70815;BME280;58428;49.478;10.986;2023-01-19T04:21:48;97467.44;;;-1.94;100.00
70815;BME280;58428;49.478;10.986;2023-01-19T04:24:15;97468.00;;;-1.97;100.00
70815;BME280;58428;49.478;10.986;2023-01-19T04:26:41;97463.22;;;-1.95;100.00
70815;BME280;58428;49.478;10.986;2023-01-19T04:29:07;97462.16;;;-1.94;100.00
70815;BME280;58428;49.478;10.986;2023-01-19T04:31:34;97463.75;;;-1.93;100.00
70815;BME280;58428;49.478;10.986;2023-01-19T04:34:02;97455.78;;;-1.93;100.00
70815;BME280;58428;49.478;10.986;2023-01-19T04:36:30;97457.09;;;-1.91;100.00
70815;BME280;58428;49.478;10.986;2023-01-19T04:38:57;97456.84;;;-1.89;100.00
70815;BME280;58428;49.478;10.986;2023-01-19T04:41:25;97456.59;;;-1.93;100.00
70815;BME280;58428;49.478;10.986;2023-01-19T04:43:51;97449.97;;;-2.00;100.00
70815;BME280;58428;49.478;10.986;2023-01-19T04:46:19;97451.06;;;-2.06;100.00
70815;BME280;58428;49.478;10.986;2023-01-19T04:48:50;97456.66;;;-2.13;100.00
70815;BME280;58428;49.478;10.986;2023-01-19T04:51:15;97459.00;;;-2.06;100.00
70815;BME280;58428;49.478;10.986;2023-01-19T04:53:44;97457.41;;;-2.02;100.00
70815;BME280;58428;49.478;10.986;2023-01-19T04:56:11;97455.28;;;-2.00;100.00
70815;BME280;58428;49.478;10.986;2023-01-19T04:58:37;97454.97;;;-1.94;100.00
70815;BME280;58428;49.478;10.986;2023-01-19T05:01:08;97463.75;;;-2.03;100.00
70815;BME280;58428;49.478;10.986;2023-01-19T05:03:35;97461.91;;;-2.08;100.00
70815;BME280;58428;49.478;10.986;2023-01-19T05:06:04;97472.78;;;-2.09;100.00
70815;BME280;58428;49.478;10.986;2023-01-19T05:08:32;97469.06;;;-2.13;100.00
70815;BME280;58428;49.478;10.986;2023-01-19T05:10:58;97471.72;;;-2.13;100.00
70815;BME280;58428;49.478;10.986;2023-01-19T05:13:24;97470.41;;;-2.16;100.00
70815;BME280;58428;49.478;10.986;2023-01-19T05:15:54;97474.38;;;-2.08;100.00
70815;BME280;58428;49.478;10.986;2023-01-19T05:18:21;97472.78;;;-2.09;100.00
70815;BME280;58428;49.478;10.986;2023-01-19T05:20:47;97470.41;;;-2.11;100.00
70815;BME280;58428;49.478;10.986;2023-01-19T05:23:12;97470.41;;;-2.11;100.00
70815;BME280;58428;49.478;10.986;2023-01-19T05:25:39;97478.06;;;-2.09;100.00
70815;BME280;58428;49.478;10.986;2023-01-19T05:28:13;97478.88;;;-2.09;100.00
70815;BME280;58428;49.478;10.986;2023-01-19T05:30:43;97485.50;;;-2.06;100.00
70815;BME280;58428;49.478;10.986;2023-01-19T05:33:09;97475.19;;;-2.13;100.00
70815;BME280;58428;49.478;10.986;2023-01-19T05:35:35;97483.94;;;-2.12;100.00
70815;BME280;58428;49.478;10.986;2023-01-19T05:38:00;97475.47;;;-2.14;100.00
70815;BME280;58428;49.478;10.986;2023-01-19T05:40:28;97483.94;;;-2.22;100.00
70815;BME280;58428;49.478;10.986;2023-01-19T05:43:01;97483.41;;;-2.19;100.00
70815;BME280;58428;49.478;10.986;2023-01-19T05:45:35;97482.63;;;-2.20;100.00
70815;BME280;58428;49.478;10.986;2023-01-19T05:48:11;97488.72;;;-2.24;100.00
70815;BME280;58428;49.478;10.986;2023-01-19T05:50:39;97494.28;;;-2.20;100.00
70815;BME280;58428;49.478;10.986;2023-01-19T05:53:10;97495.06;;;-2.25;100.00
70815;BME280;58428;49.478;10.986;2023-01-19T05:55:36;97492.94;;;-2.23;100.00
70815;BME280;58428;49.478;10.986;2023-01-19T05:58:01;97503.28;;;-2.31;100.00
70815;BME280;58428;49.478;10.986;2023-01-19T06:00:32;97490.59;;;-2.24;100.00
70815;BME280;58428;49.478;10.986;2023-01-19T06:02:57;97498.78;;;-2.26;100.00
70815;BME280;58428;49.478;10.986;2023-01-19T06:05:24;97499.84;;;-2.37;100.00
70815;BME280;58428;49.478;10.986;2023-01-19T06:07:50;97503.56;;;-2.33;100.00
70815;BME280;58428;49.478;10.986;2023-01-19T06:10:15;97502.75;;;-2.38;100.00
70815;BME280;58428;49.478;10.986;2023-01-19T06:12:41;97504.63;;;-2.44;100.00
70815;BME280;58428;49.478;10.986;2023-01-19T06:15:10;97507.28;;;-2.39;100.00
70815;BME280;58428;49.478;10.986;2023-01-19T06:17:35;97500.09;;;-2.38;100.00
70815;BME280;58428;49.478;10.986;2023-01-19T06:20:02;97492.47;;;-2.40;100.00
70815;BME280;58428;49.478;10.986;2023-01-19T06:22:29;97496.94;;;-2.40;100.00
70815;BME280;58428;49.478;10.986;2023-01-19T06:24:54;97491.38;;;-2.34;100.00
70815;BME280;58428;49.478;10.986;2023-01-19T06:27:20;97490.34;;;-2.38;100.00
70815;BME280;58428;49.478;10.986;2023-01-19T06:29:46;97501.44;;;-2.41;100.00
70815;BME280;58428;49.478;10.986;2023-01-19T06:32:11;97498.28;;;-2.38;100.00
70815;BME280;58428;49.478;10.986;2023-01-19T06:34:37;97504.34;;;-2.32;100.00
70815;BME280;58428;49.478;10.986;2023-01-19T06:37:08;97506.19;;;-2.33;100.00
70815;BME280;58428;49.478;10.986;2023-01-19T06:39:37;97503.56;;;-2.33;100.00
70815;BME280;58428;49.478;10.986;2023-01-19T06:42:09;97509.91;;;-2.39;100.00
70815;BME280;58428;49.478;10.986;2023-01-19T06:44:34;97517.88;;;-2.34;100.00
70815;BME280;58428;49.478;10.986;2023-01-19T06:47:00;97522.88;;;-2.32;100.00
70815;BME280;58428;49.478;10.986;2023-01-19T06:49:26;97512.03;;;-2.31;100.00
70815;BME280;58428;49.478;10.986;2023-01-19T06:51:52;97515.97;;;-2.28;100.00
70815;BME280;58428;49.478;10.986;2023-01-19T06:54:18;97517.84;;;-2.24;100.00
70815;BME280;58428;49.478;10.986;2023-01-19T06:56:44;97516.53;;;-2.21;100.00
70815;BME280;58428;49.478;10.986;2023-01-19T06:59:09;97523.69;;;-2.22;100.00
70815;BME280;58428;49.478;10.986;2023-01-19T07:01:34;97528.19;;;-2.27;100.00
70815;BME280;58428;49.478;10.986;2023-01-19T07:04:00;97519.72;;;-2.24;100.00
70815;BME280;58428;49.478;10.986;2023-01-19T07:06:26;97525.03;;;-2.24;100.00
70815;BME280;58428;49.478;10.986;2023-01-19T07:08:52;97531.88;;;-2.28;100.00
70815;BME280;58428;49.478;10.986;2023-01-19T07:11:20;97522.34;;;-2.29;100.00
70815;BME280;58428;49.478;10.986;2023-01-19T07:13:46;97534.00;;;-2.30;100.00
70815;BME280;58428;49.478;10.986;2023-01-19T07:16:16;97527.13;;;-2.36;100.00
70815;BME280;58428;49.478;10.986;2023-01-19T07:18:42;97526.59;;;-2.38;100.00
70815;BME280;58428;49.478;10.986;2023-01-19T07:21:07;97528.19;;;-2.42;100.00
70815;BME280;58428;49.478;10.986;2023-01-19T07:23:33;97535.88;;;-2.41;100.00
70815;BME280;58428;49.478;10.986;2023-01-19T07:26:00;97529.78;;;-2.31;100.00
70815;BME280;58428;49.478;10.986;2023-01-19T07:28:26;97537.72;;;-2.31;100.00
70815;BME280;58428;49.478;10.986;2023-01-19T07:30:52;97544.88;;;-2.27;100.00
70815;BME280;58428;49.478;10.986;2023-01-19T07:33:18;97537.19;;;-2.23;100.00
70815;BME280;58428;49.478;10.986;2023-01-19T07:35:50;97546.72;;;-2.22;100.00
70815;BME280;58428;49.478;10.986;2023-01-19T07:38:16;97544.84;;;-2.17;100.00
70815;BME280;58428;49.478;10.986;2023-01-19T07:40:46;97545.38;;;-2.15;100.00
70815;BME280;58428;49.478;10.986;2023-01-19T07:43:12;97542.75;;;-2.10;100.00
70815;BME280;58428;49.478;10.986;2023-01-19T07:45:40;97547.75;;;-2.04;100.00
70815;BME280;58428;49.478;10.986;2023-01-19T07:48:07;97548.28;;;-2.02;100.00
70815;BME280;58428;49.478;10.986;2023-01-19T07:50:34;97546.72;;;-2.03;100.00
70815;BME280;58428;49.478;10.986;2023-01-19T07:53:06;97545.63;;;-2.02;100.00
70815;BME280;58428;49.478;10.986;2023-01-19T07:55:34;97558.88;;;-1.97;100.00
70815;BME280;58428;49.478;10.986;2023-01-19T07:58:00;97562.59;;;-1.98;100.00
70815;BME280;58428;49.478;10.986;2023-01-19T08:00:25;97568.16;;;-1.99;100.00
70815;BME280;58428;49.478;10.986;2023-01-19T08:02:51;97566.06;;;-1.97;100.00
70815;BME280;58428;49.478;10.986;2023-01-19T08:05:17;97568.97;;;-1.99;100.00
70815;BME280;58428;49.478;10.986;2023-01-19T08:07:44;97571.06;;;-1.96;100.00
70815;BME280;58428;49.478;10.986;2023-01-19T08:10:13;97571.31;;;-1.92;100.00
70815;BME280;58428;49.478;10.986;2023-01-19T08:12:39;97575.31;;;-1.95;100.00
70815;BME280;58428;49.478;10.986;2023-01-19T08:15:06;97571.84;;;-1.90;100.00
70815;BME280;58428;49.478;10.986;2023-01-19T08:17:31;97580.31;;;-1.88;100.00
70815;BME280;58428;49.478;10.986;2023-01-19T08:19:57;97579.00;;;-1.86;100.00
70815;BME280;58428;49.478;10.986;2023-01-19T08:22:23;97581.63;;;-1.86;100.00
70815;BME280;58428;49.478;10.986;2023-01-19T08:24:48;97585.88;;;-1.80;100.00
70815;BME280;58428;49.478;10.986;2023-01-19T08:27:13;97588.00;;;-1.72;100.00
70815;BME280;58428;49.478;10.986;2023-01-19T08:29:39;97586.38;;;-1.63;100.00
70815;BME280;58428;49.478;10.986;2023-01-19T08:32:06;97585.56;;;-1.54;100.00
70815;BME280;58428;49.478;10.986;2023-01-19T08:34:31;97582.88;;;-1.44;100.00
70815;BME280;58428;49.478;10.986;2023-01-19T08:36:58;97592.16;;;-1.37;100.00
70815;BME280;58428;49.478;10.986;2023-01-19T08:39:24;97586.00;;;-1.32;100.00
70815;BME280;58428;49.478;10.986;2023-01-19T08:41:50;97589.72;;;-1.23;100.00
70815;BME280;58428;49.478;10.986;2023-01-19T08:44:16;97592.84;;;-1.16;100.00
70815;BME280;58428;49.478;10.986;2023-01-19T08:46:42;97597.63;;;-1.13;100.00
70815;BME280;58428;49.478;10.986;2023-01-19T08:49:08;97596.28;;;-1.06;100.00
70815;BME280;58428;49.478;10.986;2023-01-19T08:51:33;97606.34;;;-1.03;100.00
70815;BME280;58428;49.478;10.986;2023-01-19T08:53:59;97608.72;;;-0.97;100.00
70815;BME280;58428;49.478;10.986;2023-01-19T08:56:24;97597.00;;;-0.91;100.00
70815;BME280;58428;49.478;10.986;2023-01-19T08:58:50;97607.59;;;-0.86;100.00
70815;BME280;58428;49.478;10.986;2023-01-19T09:01:16;97604.88;;;-0.76;100.00
70815;BME280;58428;49.478;10.986;2023-01-19T09:03:43;97606.94;;;-0.63;100.00
70815;BME280;58428;49.478;10.986;2023-01-19T09:06:12;97613.28;;;-0.64;100.00
70815;BME280;58428;49.478;10.986;2023-01-19T09:08:39;97622.31;;;-0.60;100.00
70815;BME280;58428;49.478;10.986;2023-01-19T09:11:09;97624.44;;;-0.62;100.00
70815;BME280;58428;49.478;10.986;2023-01-19T09:13:37;97618.53;;;-0.49;100.00
70815;BME280;58428;49.478;10.986;2023-01-19T09:16:03;97624.03;;;-0.41;100.00
70815;BME280;58428;49.478;10.986;2023-01-19T09:18:33;97624.88;;;-0.45;100.00
70815;BME280;58428;49.478;10.986;2023-01-19T09:20:58;97623.97;;;-0.31;100.00
70815;BME280;58428;49.478;10.986;2023-01-19T09:23:24;97628.06;;;-0.43;100.00
70815;BME280;58428;49.478;10.986;2023-01-19T09:25:56;97623.78;;;-0.39;100.00
70815;BME280;58428;49.478;10.986;2023-01-19T09:28:22;97624.28;;;-0.33;100.00
70815;BME280;58428;49.478;10.986;2023-01-19T09:30:51;97627.16;;;-0.29;100.00
70815;BME280;58428;49.478;10.986;2023-01-19T09:33:20;97618.63;;;-0.21;100.00
70815;BME280;58428;49.478;10.986;2023-01-19T09:35:47;97623.84;;;-0.11;100.00
70815;BME280;58428;49.478;10.986;2023-01-19T09:38:13;97630.94;;;-0.02;100.00
70815;BME280;58428;49.478;10.986;2023-01-19T09:40:46;97640.53;;;-0.06;100.00
70815;BME280;58428;49.478;10.986;2023-01-19T09:43:24;97633.91;;;-0.03;100.00
70815;BME280;58428;49.478;10.986;2023-01-19T09:45:58;97627.31;;;0.17;100.00
70815;BME280;58428;49.478;10.986;2023-01-19T09:51:15;97631.63;;;0.41;100.00
70815;BME280;58428;49.478;10.986;2023-01-19T09:53:56;97627.28;;;0.50;100.00
70815;BME280;58428;49.478;10.986;2023-01-19T09:56:23;97626.63;;;0.63;100.00
70815;BME280;58428;49.478;10.986;2023-01-19T09:58:50;97626.78;;;0.72;100.00
70815;BME280;58428;49.478;10.986;2023-01-19T10:04:40;97612.19;;;0.92;100.00
70815;BME280;58428;49.478;10.986;2023-01-19T10:10:28;97625.59;;;1.29;100.00
70815;BME280;58428;49.478;10.986;2023-01-19T10:15:59;97617.81;;;1.50;100.00
70815;BME280;58428;49.478;10.986;2023-01-19T10:18:45;97628.75;;;1.49;100.00
70815;BME280;58428;49.478;10.986;2023-01-19T10:21:21;97619.00;;;1.63;100.00
70815;BME280;58428;49.478;10.986;2023-01-19T10:24:05;97621.22;;;1.74;100.00
70815;BME280;58428;49.478;10.986;2023-01-19T10:26:41;97626.13;;;1.67;100.00
70815;BME280;58428;49.478;10.986;2023-01-19T10:29:34;97621.31;;;1.69;100.00
70815;BME280;58428;49.478;10.986;2023-01-19T10:32:10;97618.84;;;1.73;100.00
70815;BME280;58428;49.478;10.986;2023-01-19T10:34:37;97611.78;;;1.63;100.00
70815;BME280;58428;49.478;10.986;2023-01-19T10:37:33;97619.28;;;1.80;100.00
70815;BME280;58428;49.478;10.986;2023-01-19T10:40:13;97619.63;;;1.91;100.00
70815;BME280;58428;49.478;10.986;2023-01-19T10:42:40;97620.00;;;2.03;100.00
70815;BME280;58428;49.478;10.986;2023-01-19T10:45:14;97619.34;;;1.93;100.00
70815;BME280;58428;49.478;10.986;2023-01-19T10:47:41;97622.28;;;2.10;100.00
70815;BME280;58428;49.478;10.986;2023-01-19T10:50:35;97613.09;;;2.16;100.00
70815;BME280;58428;49.478;10.986;2023-01-19T10:53:04;97620.19;;;2.07;100.00
70815;BME280;58428;49.478;10.986;2023-01-19T10:55:36;97617.22;;;2.08;100.00
70815;BME280;58428;49.478;10.986;2023-01-19T10:58:26;97610.44;;;2.16;100.00
70815;BME280;58428;49.478;10.986;2023-01-19T11:00:52;97618.94;;;2.18;100.00
70815;BME280;58428;49.478;10.986;2023-01-19T11:03:30;97615.56;;;2.12;100.00
70815;BME280;58428;49.478;10.986;2023-01-19T11:08:42;97611.59;;;2.41;100.00
70815;BME280;58428;49.478;10.986;2023-01-19T11:11:08;97606.00;;;2.56;100.00
70815;BME280;58428;49.478;10.986;2023-01-19T11:13:38;97599.00;;;2.73;100.00
70815;BME280;58428;49.478;10.986;2023-01-19T11:16:28;97599.81;;;3.00;100.00
70815;BME280;58428;49.478;10.986;2023-01-19T11:18:56;97592.97;;;3.08;100.00
70815;BME280;58428;49.478;10.986;2023-01-19T11:21:26;97594.75;;;2.86;100.00
70815;BME280;58428;49.478;10.986;2023-01-19T11:24:03;97592.06;;;2.99;100.00
70815;BME280;58428;49.478;10.986;2023-01-19T11:26:43;97585.34;;;3.15;100.00
70815;BME280;58428;49.478;10.986;2023-01-19T11:29:21;97588.00;;;3.28;100.00
70815;BME280;58428;49.478;10.986;2023-01-19T11:31:48;97590.09;;;3.31;100.00
70815;BME280;58428;49.478;10.986;2023-01-19T11:34:32;97590.75;;;3.36;100.00
70815;BME280;58428;49.478;10.986;2023-01-19T11:39:57;97587.22;;;3.14;100.00
70815;BME280;58428;49.478;10.986;2023-01-19T11:42:24;97587.91;;;3.20;100.00
70815;BME280;58428;49.478;10.986;2023-01-19T11:44:57;97591.78;;;3.14;100.00
70815;BME280;58428;49.478;10.986;2023-01-19T11:47:32;97583.34;;;3.20;100.00
70815;BME280;58428;49.478;10.986;2023-01-19T11:50:14;97583.34;;;3.33;100.00
70815;BME280;58428;49.478;10.986;2023-01-19T11:52:59;97584.03;;;3.26;100.00
70815;BME280;58428;49.478;10.986;2023-01-19T11:55:37;97577.28;;;3.41;100.00
70815;BME280;58428;49.478;10.986;2023-01-19T11:58:06;97580.88;;;3.37;100.00
70815;BME280;58428;49.478;10.986;2023-01-19T12:03:31;97579.47;;;3.26;100.00
70815;BME280;58428;49.478;10.986;2023-01-19T12:08:49;97570.97;;;3.24;100.00
70815;BME280;58428;49.478;10.986;2023-01-19T12:11:24;97570.81;;;3.42;100.00
70815;BME280;58428;49.478;10.986;2023-01-19T12:13:51;97575.41;;;3.28;100.00
70815;BME280;58428;49.478;10.986;2023-01-19T12:16:22;97579.41;;;2.91;100.00
70815;BME280;58428;49.478;10.986;2023-01-19T12:19:13;97580.59;;;2.85;100.00
70815;BME280;58428;49.478;10.986;2023-01-19T12:21:37;97586.22;;;2.84;100.00
70815;BME280;58428;49.478;10.986;2023-01-19T12:26:53;97590.06;;;2.64;100.00
70815;BME280;58428;49.478;10.986;2023-01-19T12:29:31;97587.88;;;2.53;100.00
70815;BME280;58428;49.478;10.986;2023-01-19T12:37:40;97585.59;;;2.47;100.00
70815;BME280;58428;49.478;10.986;2023-01-19T12:40:27;97584.31;;;2.44;100.00
70815;BME280;58428;49.478;10.986;2023-01-19T12:43:00;97588.56;;;2.45;100.00
70815;BME280;58428;49.478;10.986;2023-01-19T12:45:33;97592.84;;;2.46;100.00
70815;BME280;58428;49.478;10.986;2023-01-19T12:48:02;97583.94;;;2.51;100.00
70815;BME280;58428;49.478;10.986;2023-01-19T12:50:34;97579.59;;;2.55;100.00
70815;BME280;58428;49.478;10.986;2023-01-19T12:53:03;97577.63;;;2.73;100.00
70815;BME280;58428;49.478;10.986;2023-01-19T12:55:35;97578.63;;;3.04;100.00
70815;BME280;58428;49.478;10.986;2023-01-19T12:58:24;97580.47;;;3.17;100.00
70815;BME280;58428;49.478;10.986;2023-01-19T13:01:14;97574.06;;;3.18;100.00
70815;BME280;58428;49.478;10.986;2023-01-19T13:06:11;97578.47;;;3.35;100.00
70815;BME280;58428;49.478;10.986;2023-01-19T13:08:57;97578.78;;;3.21;100.00
70815;BME280;58428;49.478;10.986;2023-01-19T13:11:24;97572.75;;;3.15;100.00
70815;BME280;58428;49.478;10.986;2023-01-19T13:18:59;97576.44;;;3.06;100.00
70815;BME280;58428;49.478;10.986;2023-01-19T13:24:00;97583.97;;;2.91;100.00
70815;BME280;58428;49.478;10.986;2023-01-19T13:26:31;97574.28;;;2.94;100.00
70815;BME280;58428;49.478;10.986;2023-01-19T13:29:13;97571.91;;;2.93;100.00
70815;BME280;58428;49.478;10.986;2023-01-19T13:31:42;97575.25;;;2.98;100.00
70815;BME280;58428;49.478;10.986;2023-01-19T13:34:21;97579.13;;;2.79;100.00
70815;BME280;58428;49.478;10.986;2023-01-19T13:36:53;97574.28;;;2.81;100.00
70815;BME280;58428;49.478;10.986;2023-01-19T13:39:25;97575.63;;;2.92;100.00
70815;BME280;58428;49.478;10.986;2023-01-19T13:41:58;97570.22;;;2.84;100.00
70815;BME280;58428;49.478;10.986;2023-01-19T13:44:34;97562.41;;;3.00;100.00
70815;BME280;58428;49.478;10.986;2023-01-19T13:47:04;97578.59;;;3.17;100.00
70815;BME280;58428;49.478;10.986;2023-01-19T13:49:38;97575.13;;;3.17;100.00
70815;BME280;58428;49.478;10.986;2023-01-19T13:52:18;97578.09;;;3.28;100.00